Time;durP1;ratioP1;P1;durP2;ratioP2;P2;SDS_P1;SDS_P2;PMS_P1;PMS_P2;Temp;Humidity;BMP_temperature;BMP_pressure;BME280_temperature;BME280_humidity;BME280_pressure;Samples;Min_cycle;Max_cycle;Signal;HPM_P1;HPM_P2
2023/06/16 00:02:07;;;;;;;19.92;11.50;;;16.40;99.90;;;;;;6332330;22;20052;-83
2023/06/16 00:04:33;;;;;;;20.25;11.85;;;16.30;99.90;;;;;;6332127;22;20125;-83
2023/06/16 00:07:01;;;;;;;19.75;11.73;;;16.30;99.90;;;;;;6332280;22;20418;-83
2023/06/16 00:09:27;;;;;;;20.42;10.48;;;16.30;99.90;;;;;;6332245;22;20323;-83
2023/06/16 00:11:55;;;;;;;20.42;10.85;;;16.30;99.90;;;;;;6306962;22;20382;-84
2023/06/16 00:14:21;;;;;;;21.63;11.00;;;16.30;99.90;;;;;;6332365;22;19995;-84
2023/06/16 00:16:48;;;;;;;17.58;10.85;;;16.30;99.90;;;;;;6332310;22;20030;-83
2023/06/16 00:19:15;;;;;;;22.63;11.48;;;16.20;99.90;;;;;;6331971;22;19995;-83
2023/06/16 00:21:43;;;;;;;19.38;11.85;;;16.20;99.90;;;;;;6332346;22;20082;-83
2023/06/16 00:24:09;;;;;;;21.58;10.95;;;16.30;99.90;;;;;;6332108;22;20424;-84
2023/06/16 00:26:36;;;;;;;19.60;11.20;;;16.30;99.90;;;;;;6332353;22;20376;-84
2023/06/16 00:29:03;;;;;;;23.85;12.13;;;16.30;99.90;;;;;;6332602;22;20002;-84
2023/06/16 00:31:31;;;;;;;19.80;12.27;;;16.20;99.90;;;;;;6331998;22;20007;-83
2023/06/16 00:34:00;;;;;;;19.13;11.15;;;16.20;99.90;;;;;;6332620;22;20003;-83
2023/06/16 00:36:26;;;;;;;21.30;12.25;;;16.20;99.90;;;;;;6332439;22;20430;-83
2023/06/16 00:38:52;;;;;;;18.40;12.18;;;16.10;99.90;;;;;;6331935;22;19995;-83
2023/06/16 00:41:18;;;;;;;21.10;12.40;;;16.10;99.90;;;;;;6332181;22;20006;-84
2023/06/16 00:43:44;;;;;;;20.48;12.18;;;16.10;99.90;;;;;;6307864;22;20026;-83
2023/06/16 00:46:20;;;;;;;20.15;12.45;;;16.10;99.90;;;;;;6332098;22;20090;-84
2023/06/16 00:48:46;;;;;;;20.17;12.68;;;16.10;99.90;;;;;;6332326;22;20003;-83
2023/06/16 00:51:12;;;;;;;18.58;11.60;;;16.10;99.90;;;;;;6331805;22;20011;-85
2023/06/16 00:53:39;;;;;;;17.90;11.45;;;16.10;99.90;;;;;;6331701;22;20078;-83
2023/06/16 00:56:05;;;;;;;21.02;12.18;;;16.10;99.90;;;;;;6332055;22;20011;-85
2023/06/16 00:58:31;;;;;;;20.73;11.63;;;16.10;99.90;;;;;;6332602;22;20007;-85
2023/06/16 01:00:57;;;;;;;23.38;11.60;;;16.10;99.90;;;;;;6331677;22;19995;-85
2023/06/16 01:03:22;;;;;;;29.48;12.45;;;16.10;99.90;;;;;;6332076;22;20010;-84
2023/06/16 01:05:49;;;;;;;22.60;12.77;;;16.10;99.90;;;;;;6332367;22;20082;-84
2023/06/16 01:08:28;;;;;;;18.65;11.57;;;16.10;99.90;;;;;;6333930;22;19999;-84
2023/06/16 01:11:27;;;;;;;26.60;12.68;;;16.00;99.90;;;;;;6334217;22;20007;-84
2023/06/16 01:14:07;;;;;;;21.42;12.15;;;16.00;99.90;;;;;;6333907;22;20034;-84
2023/06/16 01:16:35;;;;;;;19.98;11.32;;;16.00;99.90;;;;;;6333950;22;20003;-84
2023/06/16 01:19:08;;;;;;;25.40;12.48;;;16.00;99.90;;;;;;6334042;22;20004;-84
2023/06/16 01:22:06;;;;;;;19.08;11.85;;;16.00;99.90;;;;;;6333789;22;20057;-84
2023/06/16 01:24:33;;;;;;;20.42;12.32;;;16.00;99.90;;;;;;6306978;22;20057;-85
2023/06/16 01:27:00;;;;;;;22.25;12.43;;;16.00;99.90;;;;;;6333841;22;20060;-83
2023/06/16 01:29:27;;;;;;;24.27;12.65;;;16.00;99.90;;;;;;6334170;22;20007;-84
2023/06/16 01:31:58;;;;;;;19.88;11.23;;;16.00;99.90;;;;;;6333899;22;20440;-86
2023/06/16 01:34:26;;;;;;;19.17;11.82;;;16.00;99.90;;;;;;6333671;22;19999;-85
2023/06/16 01:36:54;;;;;;;20.27;11.90;;;16.00;99.90;;;;;;6333753;22;19995;-86
2023/06/16 01:39:22;;;;;;;18.65;12.07;;;16.00;99.90;;;;;;6333896;22;20074;-85
2023/06/16 01:41:49;;;;;;;22.52;12.13;;;16.00;99.90;;;;;;6333273;22;19999;-85
2023/06/16 01:44:16;;;;;;;24.25;12.00;;;16.00;99.90;;;;;;6333826;22;20004;-85
2023/06/16 01:46:43;;;;;;;20.70;11.30;;;16.00;99.90;;;;;;6333690;22;20027;-85
2023/06/16 01:49:09;;;;;;;22.15;11.25;;;16.00;99.90;;;;;;6333178;22;20082;-84
2023/06/16 01:51:36;;;;;;;25.10;12.35;;;16.00;99.90;;;;;;6333853;22;20007;-83
2023/06/16 01:54:02;;;;;;;21.33;12.98;;;16.00;99.90;;;;;;6333287;22;20010;-84
2023/06/16 01:56:30;;;;;;;25.45;12.10;;;16.00;99.90;;;;;;6333541;22;20019;-84
2023/06/16 01:58:55;;;;;;;18.55;12.10;;;15.90;99.90;;;;;;6333732;22;20006;-85
2023/06/16 02:01:37;;;;;;;21.50;12.55;;;15.90;99.90;;;;;;6333426;22;20007;-84
2023/06/16 02:04:14;;;;;;;21.05;11.52;;;15.90;99.90;;;;;;6333584;22;20056;-85
2023/06/16 02:07:01;;;;;;;27.70;12.50;;;15.90;99.90;;;;;;6334501;22;20003;-84
2023/06/16 02:09:30;;;;;;;24.17;12.35;;;15.90;99.90;;;;;;6333499;22;20006;-85
2023/06/16 02:11:57;;;;;;;28.15;12.30;;;15.90;99.90;;;;;;6309435;22;20064;-85
2023/06/16 02:14:24;;;;;;;23.50;12.38;;;15.90;99.90;;;;;;6333906;22;20000;-84
2023/06/16 02:16:52;;;;;;;21.58;12.95;;;15.90;99.90;;;;;;6333272;22;19996;-84
2023/06/16 02:19:18;;;;;;;19.60;12.35;;;15.90;99.90;;;;;;6333756;22;20011;-85
2023/06/16 02:21:44;;;;;;;21.77;12.80;;;15.90;99.90;;;;;;6333772;22;20007;-85
2023/06/16 02:24:10;;;;;;;24.58;12.48;;;15.90;99.90;;;;;;6333664;22;20323;-85
2023/06/16 02:26:40;;;;;;;20.38;12.43;;;15.90;99.90;;;;;;6334036;22;20010;-85
2023/06/16 02:29:05;;;;;;;24.50;12.43;;;15.90;99.90;;;;;;6333823;22;20010;-85
2023/06/16 02:31:31;;;;;;;19.98;11.82;;;15.90;99.90;;;;;;6333528;22;20030;-85
2023/06/16 02:33:57;;;;;;;20.52;11.88;;;15.90;99.90;;;;;;6307817;22;20078;-84
2023/06/16 02:36:26;;;;;;;26.35;11.95;;;15.90;99.90;;;;;;6334169;22;20440;-85
2023/06/16 02:38:52;;;;;;;21.48;12.35;;;15.90;99.90;;;;;;6332671;22;20014;-85
2023/06/16 02:41:18;;;;;;;30.10;12.65;;;15.90;99.90;;;;;;6333174;22;20007;-86
2023/06/16 02:43:44;;;;;;;20.08;11.70;;;15.90;99.90;;;;;;6333344;22;20007;-85
2023/06/16 02:46:09;;;;;;;21.55;11.30;;;15.80;99.90;;;;;;6333012;22;19999;-85
2023/06/16 02:48:35;;;;;;;20.10;11.77;;;15.90;99.90;;;;;;6333319;22;20108;-84
2023/06/16 02:51:01;;;;;;;21.73;11.95;;;15.90;99.90;;;;;;6333000;22;20011;-85
2023/06/16 02:53:29;;;;;;;22.13;11.98;;;15.90;99.90;;;;;;6333342;22;20305;-85
2023/06/16 02:55:55;;;;;;;26.13;12.27;;;15.80;99.90;;;;;;6332899;22;20015;-84
2023/06/16 02:58:22;;;;;;;20.30;11.82;;;15.80;99.90;;;;;;6333047;22;20014;-85
2023/06/16 03:00:48;;;;;;;22.70;11.75;;;15.80;99.90;;;;;;6333404;22;20003;-86
2023/06/16 03:03:14;;;;;;;17.45;11.50;;;15.80;99.90;;;;;;6333606;22;20034;-85
2023/06/16 03:05:40;;;;;;;19.63;11.45;;;15.80;99.90;;;;;;6332729;22;20061;-85
2023/06/16 03:08:06;;;;;;;18.15;11.70;;;15.80;99.90;;;;;;6333388;22;20003;-86
2023/06/16 03:10:32;;;;;;;22.55;11.52;;;15.80;99.90;;;;;;6333091;22;20010;-84
2023/06/16 03:12:58;;;;;;;19.33;11.30;;;15.80;99.90;;;;;;6332728;22;20374;-85
2023/06/16 03:15:25;;;;;;;23.15;11.75;;;15.80;99.90;;;;;;6333121;22;20025;-85
2023/06/16 03:17:51;;;;;;;21.40;11.30;;;15.80;99.90;;;;;;6332808;22;20024;-84
2023/06/16 03:20:17;;;;;;;21.10;11.63;;;15.70;99.90;;;;;;6332541;22;20086;-84
2023/06/16 03:22:43;;;;;;;23.05;11.43;;;15.70;99.90;;;;;;6332964;22;20037;-83
2023/06/16 03:25:10;;;;;;;26.60;12.52;;;15.70;99.90;;;;;;6332821;22;20086;-85
2023/06/16 03:27:40;;;;;;;17.20;11.63;;;15.70;99.90;;;;;;6332395;22;19999;-84
2023/06/16 03:30:08;;;;;;;20.48;11.35;;;15.70;99.90;;;;;;6332330;22;19995;-84
2023/06/16 03:32:35;;;;;;;19.98;10.82;;;15.70;99.90;;;;;;6333304;22;20007;-84
2023/06/16 03:35:04;;;;;;;17.85;11.35;;;15.70;99.90;;;;;;6306244;22;19999;-83
2023/06/16 03:37:31;;;;;;;24.17;11.38;;;15.70;99.90;;;;;;6332918;22;20000;-84
2023/06/16 03:39:56;;;;;;;24.98;11.38;;;15.60;99.90;;;;;;6332803;22;20090;-83
2023/06/16 03:42:22;;;;;;;18.65;11.10;;;15.60;99.90;;;;;;6307834;22;20035;-83
2023/06/16 03:44:49;;;;;;;19.27;11.00;;;15.60;99.90;;;;;;6332083;22;20043;-85
2023/06/16 03:47:16;;;;;;;20.75;10.65;;;15.60;99.90;;;;;;6332231;22;20005;-85
2023/06/16 03:49:42;;;;;;;21.98;10.85;;;15.60;99.90;;;;;;6307866;22;20419;-84
2023/06/16 03:52:08;;;;;;;24.85;11.32;;;15.60;99.90;;;;;;6332584;22;20041;-84
2023/06/16 03:54:33;;;;;;;17.35;10.80;;;15.60;99.90;;;;;;6332313;22;20026;-84
2023/06/16 03:56:59;;;;;;;19.38;11.98;;;15.60;99.90;;;;;;6332436;22;20064;-84
2023/06/16 03:59:25;;;;;;;20.67;11.52;;;15.60;99.90;;;;;;6332583;22;20011;-84
2023/06/16 04:01:51;;;;;;;20.23;12.13;;;15.60;99.90;;;;;;6332144;22;20094;-85
2023/06/16 04:04:17;;;;;;;18.80;10.23;;;15.70;99.90;;;;;;6307604;22;20002;-85
2023/06/16 04:06:43;;;;;;;21.90;11.07;;;15.70;99.90;;;;;;6332684;22;19996;-85
2023/06/16 04:09:10;;;;;;;17.40;10.77;;;15.70;99.90;;;;;;6332154;22;20048;-85
2023/06/16 04:11:40;;;;;;;22.17;11.18;;;15.70;99.90;;;;;;6332281;22;20144;-83
2023/06/16 04:14:06;;;;;;;21.23;11.10;;;15.70;99.90;;;;;;6333105;22;20007;-84
2023/06/16 04:16:32;;;;;;;19.42;11.80;;;15.70;99.90;;;;;;6331729;22;20014;-82
2023/06/16 04:19:02;;;;;;;20.73;11.85;;;15.80;99.90;;;;;;6332380;22;20078;-85
2023/06/16 04:21:28;;;;;;;21.20;11.13;;;15.80;99.90;;;;;;6332032;22;20431;-84
2023/06/16 04:23:53;;;;;;;21.20;11.52;;;15.80;99.90;;;;;;6331780;22;20031;-85
2023/06/16 04:26:22;;;;;;;16.88;11.07;;;15.80;99.90;;;;;;6332598;22;20431;-82
2023/06/16 04:28:53;;;;;;;18.50;11.02;;;15.90;99.90;;;;;;6307620;22;19999;-83
2023/06/16 04:31:21;;;;;;;16.77;10.50;;;15.90;99.90;;;;;;6332203;22;20000;-82
2023/06/16 04:33:47;;;;;;;18.02;11.30;;;15.90;99.90;;;;;;6308212;22;20027;-82
2023/06/16 04:36:14;;;;;;;19.52;10.65;;;15.90;99.90;;;;;;6331883;22;20025;-82
2023/06/16 04:38:40;;;;;;;18.85;11.82;;;15.90;99.90;;;;;;6332475;22;20489;-83
2023/06/16 04:41:06;;;;;;;18.02;10.93;;;16.00;99.90;;;;;;6333454;22;20316;-82
2023/06/16 04:43:32;;;;;;;16.15;10.85;;;16.00;99.90;;;;;;6334147;22;20041;-84
2023/06/16 04:45:58;;;;;;;20.20;11.02;;;16.00;99.90;;;;;;6333847;22;19999;-82
2023/06/16 04:48:25;;;;;;;17.25;10.88;;;16.00;99.90;;;;;;6309851;22;20033;-83
2023/06/16 04:50:53;;;;;;;16.15;10.45;;;16.00;99.90;;;;;;6333827;22;20312;-84
2023/06/16 04:53:20;;;;;;;15.98;10.82;;;16.00;99.90;;;;;;6334574;22;20060;-82
2023/06/16 04:55:46;;;;;;;20.17;11.65;;;16.00;99.90;;;;;;6334158;22;20019;-83
2023/06/16 04:58:11;;;;;;;19.27;11.25;;;16.00;99.90;;;;;;6309122;22;20486;-83
2023/06/16 05:00:37;;;;;;;19.65;10.57;;;16.00;99.90;;;;;;6334079;22;20053;-83
2023/06/16 05:03:03;;;;;;;17.98;10.20;;;16.00;99.90;;;;;;6334338;22;20057;-85
2023/06/16 05:05:29;;;;;;;22.25;10.65;;;16.00;99.90;;;;;;6334227;22;20007;-84
2023/06/16 05:07:55;;;;;;;15.63;10.07;;;16.00;99.90;;;;;;6334574;22;20324;-84
2023/06/16 05:10:21;;;;;;;20.10;9.82;;;16.00;99.90;;;;;;6334646;22;19999;-83
2023/06/16 05:12:47;;;;;;;17.70;10.70;;;16.10;99.90;;;;;;6308047;22;20086;-83
2023/06/16 05:15:12;;;;;;;16.02;10.32;;;16.10;99.90;;;;;;6334447;22;20004;-83
2023/06/16 05:17:39;;;;;;;17.15;10.35;;;16.00;99.90;;;;;;6334252;22;20125;-83
2023/06/16 05:20:06;;;;;;;16.83;9.65;;;16.10;99.90;;;;;;6333987;22;20013;-84
2023/06/16 05:22:32;;;;;;;19.20;10.20;;;16.00;99.90;;;;;;6308245;22;20000;-83
2023/06/16 05:24:58;;;;;;;18.80;9.45;;;16.10;99.90;;;;;;6334155;22;20003;-83
2023/06/16 05:27:24;;;;;;;19.02;10.13;;;16.10;99.90;;;;;;6308118;22;20053;-84
2023/06/16 05:29:51;;;;;;;15.15;9.05;;;16.10;99.90;;;;;;6334219;22;20052;-84
2023/06/16 05:32:19;;;;;;;22.05;10.43;;;16.10;99.90;;;;;;6307902;22;20003;-85
2023/06/16 05:34:46;;;;;;;17.95;10.63;;;16.10;99.90;;;;;;6334208;22;20003;-84
2023/06/16 05:37:15;;;;;;;19.27;10.20;;;16.20;99.90;;;;;;6333717;22;20011;-85
2023/06/16 05:39:43;;;;;;;17.52;9.98;;;16.20;99.90;;;;;;6333946;22;20473;-84
2023/06/16 05:42:10;;;;;;;22.77;11.15;;;16.30;99.90;;;;;;6307718;22;20025;-84
2023/06/16 05:44:36;;;;;;;23.90;11.35;;;16.30;99.90;;;;;;6334256;22;20010;-83
2023/06/16 05:47:03;;;;;;;17.45;11.25;;;16.30;99.90;;;;;;6334205;22;20039;-81
2023/06/16 05:49:29;;;;;;;18.85;10.63;;;16.30;99.90;;;;;;6333824;22;20438;-82
2023/06/16 05:51:57;;;;;;;19.70;10.30;;;16.30;99.90;;;;;;6333650;22;20015;-85
2023/06/16 05:54:23;;;;;;;15.48;10.27;;;16.30;99.90;;;;;;6333681;22;20316;-83
2023/06/16 05:56:48;;;;;;;15.55;8.90;;;16.30;99.90;;;;;;6333563;22;20455;-82
2023/06/16 05:59:14;;;;;;;14.48;9.60;;;16.40;99.90;;;;;;6307873;22;20000;-83
2023/06/16 06:01:40;;;;;;;14.63;9.10;;;16.30;99.90;;;;;;6307513;22;20008;-82
2023/06/16 06:04:06;;;;;;;14.23;9.82;;;16.30;99.90;;;;;;6307792;22;20370;-83
2023/06/16 06:06:32;;;;;;;19.00;8.77;;;16.40;99.90;;;;;;6308091;22;20082;-83
2023/06/16 06:08:57;;;;;;;16.45;8.55;;;16.40;99.90;;;;;;6307447;22;20002;-85
2023/06/16 06:11:23;;;;;;;13.32;8.50;;;16.30;99.90;;;;;;6307965;22;20014;-84
2023/06/16 06:13:49;;;;;;;13.98;8.30;;;16.40;99.90;;;;;;6307985;22;20019;-82
2023/06/16 06:16:15;;;;;;;13.88;9.07;;;16.30;99.90;;;;;;6307625;22;20014;-83
2023/06/16 06:18:44;;;;;;;13.68;8.90;;;16.30;99.90;;;;;;6307454;22;20504;-84
2023/06/16 06:21:09;;;;;;;16.08;9.90;;;16.30;99.90;;;;;;6307176;22;20053;-83
2023/06/16 06:23:35;;;;;;;17.20;9.75;;;16.30;99.90;;;;;;6309153;22;20003;-86
2023/06/16 06:26:01;;;;;;;13.90;8.80;;;16.30;99.90;;;;;;6309165;22;20023;-83
2023/06/16 06:28:27;;;;;;;15.38;9.07;;;16.40;99.90;;;;;;6309009;22;19995;-83
2023/06/16 06:30:52;;;;;;;16.42;9.63;;;16.40;99.90;;;;;;6307658;22;20003;-83
2023/06/16 06:33:18;;;;;;;14.52;9.20;;;16.40;99.90;;;;;;6308059;22;20038;-83
2023/06/16 06:35:44;;;;;;;17.25;9.07;;;16.50;99.90;;;;;;6308761;22;20431;-82
2023/06/16 06:38:11;;;;;;;14.52;9.27;;;16.40;99.90;;;;;;6307588;22;20461;-83
2023/06/16 06:40:36;;;;;;;15.05;8.90;;;16.50;99.90;;;;;;6309169;22;20053;-83
2023/06/16 06:43:02;;;;;;;13.32;8.00;;;16.50;99.90;;;;;;6308789;22;20003;-83
2023/06/16 06:45:28;;;;;;;13.50;8.13;;;16.50;99.90;;;;;;6307762;22;20004;-83
2023/06/16 06:47:54;;;;;;;13.73;8.85;;;16.60;99.90;;;;;;6307502;22;20489;-82
2023/06/16 06:50:19;;;;;;;12.20;8.75;;;16.50;99.90;;;;;;6307168;22;20005;-83
2023/06/16 06:52:45;;;;;;;14.60;8.00;;;16.60;99.90;;;;;;6307499;22;20003;-82
2023/06/16 06:55:11;;;;;;;14.00;8.57;;;16.60;99.90;;;;;;6307186;22;20029;-84
2023/06/16 06:57:38;;;;;;;12.93;8.30;;;16.70;99.90;;;;;;6306950;22;20019;-83
2023/06/16 07:00:07;;;;;;;15.10;9.10;;;16.70;99.90;;;;;;6307491;22;20034;-84
2023/06/16 07:02:33;;;;;;;14.50;8.55;;;16.70;99.90;;;;;;6307606;22;20011;-83
2023/06/16 07:04:58;;;;;;;15.23;9.23;;;16.70;99.90;;;;;;6307068;22;20374;-84
2023/06/16 07:07:24;;;;;;;14.13;8.77;;;16.80;99.90;;;;;;6307591;22;20369;-86
2023/06/16 07:09:50;;;;;;;13.80;7.95;;;16.80;99.90;;;;;;6307454;22;20003;-84
2023/06/16 07:12:16;;;;;;;12.63;8.63;;;16.80;99.90;;;;;;6306975;22;20411;-86
2023/06/16 07:14:45;;;;;;;10.30;7.38;;;16.90;99.90;;;;;;6307485;22;20367;-85
2023/06/16 07:17:11;;;;;;;11.90;8.00;;;16.80;99.90;;;;;;6308413;22;20428;-83
2023/06/16 07:19:36;;;;;;;14.90;7.85;;;16.90;99.90;;;;;;6307272;22;20025;-84
2023/06/16 07:22:02;;;;;;;16.13;8.30;;;16.90;99.90;;;;;;6307262;22;20007;-84
2023/06/16 07:24:28;;;;;;;14.00;7.80;;;17.00;99.90;;;;;;6306885;22;19999;-86
2023/06/16 07:26:54;;;;;;;12.88;7.70;;;17.00;99.90;;;;;;6308473;22;20019;-85
2023/06/16 07:29:20;;;;;;;12.63;8.45;;;17.10;99.90;;;;;;6307492;22;20000;-83
2023/06/16 07:31:46;;;;;;;11.68;7.03;;;17.10;99.90;;;;;;6306716;22;20423;-83
2023/06/16 07:34:12;;;;;;;9.90;6.72;;;17.00;99.90;;;;;;6307339;22;20184;-85
2023/06/16 07:36:38;;;;;;;11.48;7.68;;;17.10;99.90;;;;;;6307085;22;20009;-84
2023/06/16 07:39:04;;;;;;;11.73;8.02;;;17.20;99.90;;;;;;6306613;22;20042;-83
2023/06/16 07:41:32;;;;;;;11.10;6.80;;;17.20;99.90;;;;;;6307323;22;20007;-87
2023/06/16 07:43:58;;;;;;;11.07;7.22;;;17.20;99.90;;;;;;6307555;22;20003;-88
2023/06/16 07:47:06;;;;;;;10.05;7.25;;;17.20;99.90;;;;;;6307633;22;20029;-90
2023/06/16 07:50:13;;;;;;;;;;;;;;;;;;;;;
2023/06/16 07:53:12;;;;;;;10.52;6.60;;;17.30;99.90;;;;;;6094364;23;20543;-89
2023/06/16 07:55:43;;;;;;;10.55;7.10;;;17.40;99.90;;;;;;6069629;23;20427;-89
2023/06/16 07:58:19;;;;;;;;;;;17.40;99.90;;;;;;6095976;23;20018;-93
2023/06/16 08:01:27;;;;;;;;;;;;;;;;;;;;;
2023/06/16 08:07:40;;;;;;;11.18;6.90;;;17.50;99.90;;;;;;5983053;23;20140;-89
2023/06/16 08:10:07;;;;;;;9.38;6.47;;;17.50;99.90;;;;;;6009836;23;20007;-89
2023/06/16 08:12:33;;;;;;;9.02;6.22;;;17.50;99.90;;;;;;6009563;23;20036;-91
2023/06/16 08:15:08;;;;;;;9.82;5.93;;;17.50;99.90;;;;;;6009124;23;20008;-88
2023/06/16 08:17:35;;;;;;;9.63;6.15;;;;;;;;;;6009871;23;20007;-89
2023/06/16 08:20:04;;;;;;;8.75;5.82;;;17.70;99.90;;;;;;5986228;23;20010;-87
2023/06/16 08:22:30;;;;;;;11.95;7.63;;;17.80;99.90;;;;;;6009551;23;20509;-89
2023/06/16 08:24:57;;;;;;;9.10;6.13;;;17.80;99.90;;;;;;6009467;23;20048;-88
2023/06/16 08:28:00;;;;;;;12.45;6.22;;;17.90;99.90;;;;;;6056639;23;20339;-89
2023/06/16 08:30:38;;;;;;;10.55;5.72;;;17.90;99.90;;;;;;6181417;23;20085;-89
2023/06/16 08:33:09;;;;;;;10.15;6.15;;;18.00;99.90;;;;;;6187378;23;20476;-88
2023/06/16 08:35:47;;;;;;;9.15;6.40;;;18.40;99.90;;;;;;6188745;23;20400;-86
2023/06/16 08:38:13;;;;;;;9.50;6.22;;;;;;;;;;6188853;23;20009;-90
2023/06/16 08:41:22;;;;;;;11.70;6.57;;;18.20;99.90;;;;;;6189389;23;20035;-90
2023/06/16 08:43:52;;;;;;;9.38;5.93;;;18.30;99.90;;;;;;6218833;22;20057;-90
2023/06/16 08:46:18;;;;;;;10.57;6.03;;;18.20;99.90;;;;;;6307234;22;20003;-87
2023/06/16 08:48:44;;;;;;;10.75;6.68;;;18.20;99.90;;;;;;6306458;22;20061;-86
2023/06/16 08:51:16;;;;;;;9.50;5.38;;;18.20;99.90;;;;;;6307249;22;20031;-86
2023/06/16 08:53:47;;;;;;;8.65;6.10;;;18.10;99.90;;;;;;6307104;22;20030;-88
2023/06/16 08:56:17;;;;;;;13.18;6.35;;;18.60;99.90;;;;;;6306377;22;20011;-89
2023/06/16 08:58:46;;;;;;;11.75;6.60;;;18.30;99.90;;;;;;6307148;22;20416;-88
2023/06/16 09:01:15;;;;;;;12.30;6.25;;;18.30;99.90;;;;;;6306840;22;20048;-89
2023/06/16 09:03:47;;;;;;;10.70;6.47;;;;;;;;;;6306576;22;20003;-89
2023/06/16 09:06:14;;;;;;;12.93;5.55;;;18.40;99.90;;;;;;6307298;22;20000;-88
2023/06/16 09:08:40;;;;;;;9.57;5.85;;;18.30;99.90;;;;;;6306967;22;20003;-87
2023/06/16 09:11:08;;;;;;;10.35;5.95;;;18.40;99.90;;;;;;6306253;22;20058;-84
2023/06/16 09:13:34;;;;;;;11.95;6.03;;;18.30;99.90;;;;;;6306945;22;20085;-85
2023/06/16 09:16:00;;;;;;;11.52;5.90;;;18.30;99.90;;;;;;6307856;22;20027;-84
2023/06/16 09:18:37;;;;;;;12.73;6.20;;;18.30;99.90;;;;;;6306708;22;20100;-87
2023/06/16 09:21:07;;;;;;;11.13;7.45;;;18.30;99.90;;;;;;6306775;22;20435;-88
2023/06/16 09:23:56;;;;;;;14.98;7.88;;;18.30;99.90;;;;;;6306666;22;20008;-87
2023/06/16 09:26:24;;;;;;;9.80;6.22;;;18.30;99.90;;;;;;6306861;22;20004;-87
2023/06/16 09:28:53;;;;;;;11.63;6.97;;;18.20;99.90;;;;;;6307977;22;20002;-85
2023/06/16 09:31:23;;;;;;;11.90;7.30;;;18.20;99.90;;;;;;6308384;22;19999;-88
2023/06/16 09:33:52;;;;;;;8.82;5.60;;;18.20;99.90;;;;;;6308813;22;20041;-87
2023/06/16 09:36:27;;;;;;;11.52;6.45;;;18.20;99.90;;;;;;6308769;22;20003;-88
2023/06/16 09:38:53;;;;;;;13.32;6.03;;;18.20;99.90;;;;;;6308052;22;20062;-89
2023/06/16 09:41:41;;;;;;;7.93;5.20;;;18.20;99.90;;;;;;6308287;22;20445;-87
2023/06/16 09:53:17;;;;;;;8.05;5.03;;;18.20;99.90;;;;;;5050394;28;20415;-88
2023/06/16 09:56:22;;;;;;;8.65;5.47;;;18.10;99.90;;;;;;5050348;28;20045;-89
2023/06/16 09:59:46;;;;;;;11.07;6.10;;;18.20;99.90;;;;;;5048960;28;20049;-86
2023/06/16 10:02:18;;;;;;;12.02;5.40;;;18.20;99.90;;;;;;4972872;28;20039;-87
2023/06/16 10:04:45;;;;;;;7.93;4.70;;;18.20;99.90;;;;;;4992878;28;20038;-84
2023/06/16 10:08:02;;;;;;;7.32;4.95;;;18.20;99.90;;;;;;5051300;28;20455;-85
2023/06/16 10:10:32;;;;;;;9.10;5.13;;;18.10;99.90;;;;;;5051575;28;20041;-87
2023/06/16 10:13:03;;;;;;;7.78;4.57;;;18.10;99.90;;;;;;5050030;28;20499;-85
2023/06/16 10:15:35;;;;;;;8.57;4.95;;;18.10;99.90;;;;;;5050090;28;20052;-84
2023/06/16 10:18:05;;;;;;;11.07;5.20;;;18.10;99.90;;;;;;5049941;28;20025;-86
2023/06/16 10:20:37;;;;;;;11.40;4.82;;;18.10;99.90;;;;;;5049646;28;20025;-85
2023/06/16 10:23:03;;;;;;;;;;;18.20;99.90;;;;;;5050519;28;20112;-85
2023/06/16 10:25:30;;;;;;;10.90;6.32;;;18.20;99.90;;;;;;5042280;28;20016;-88
2023/06/16 10:28:00;;;;;;;10.52;5.30;;;18.30;99.90;;;;;;5034463;28;20484;-86
2023/06/16 10:30:28;;;;;;;10.45;6.20;;;18.40;99.90;;;;;;5047628;28;20029;-84
2023/06/16 10:32:58;;;;;;;10.25;6.07;;;18.50;99.90;;;;;;5030195;28;20038;-85
2023/06/16 10:35:24;;;;;;;8.88;5.32;;;18.60;99.90;;;;;;5029784;28;20125;-89
2023/06/16 10:37:52;;;;;;;12.20;4.75;;;18.70;99.90;;;;;;5046612;28;20112;-84
2023/06/16 10:40:22;;;;;;;6.93;4.72;;;18.80;99.90;;;;;;5049199;28;20029;-85
2023/06/16 10:42:52;;;;;;;8.10;5.18;;;19.00;99.90;;;;;;5049541;28;20025;-85
2023/06/16 10:45:28;;;;;;;9.18;4.75;;;19.00;99.90;;;;;;5049555;28;20064;-84
2023/06/16 10:48:12;;;;;;;9.52;5.22;;;;;;;;;;5049189;28;20034;-84
2023/06/16 10:50:38;;;;;;;9.88;5.00;;;19.20;99.90;;;;;;5049495;28;20471;-86
2023/06/16 10:53:09;;;;;;;7.25;3.92;;;;;;;;;;5043829;28;20026;-83
2023/06/16 10:55:37;;;;;;;7.35;4.40;;;19.30;99.90;;;;;;5047208;28;20018;-84
2023/06/16 10:58:16;;;;;;;8.45;4.53;;;;;;;;;;5048462;28;20032;-85
2023/06/16 11:01:01;;;;;;;7.43;4.50;;;19.40;99.90;;;;;;5032159;28;20021;-82
2023/06/16 11:03:38;;;;;;;7.28;4.30;;;19.40;99.90;;;;;;5027915;28;20037;-86
2023/06/16 11:06:05;;;;;;;9.05;4.82;;;19.60;99.90;;;;;;5046093;28;20053;-84
2023/06/16 11:08:47;;;;;;;7.22;4.13;;;19.60;99.90;;;;;;5044771;28;20037;-86
2023/06/16 11:11:13;;;;;;;9.77;3.65;;;19.70;99.90;;;;;;5049125;28;20029;-88
2023/06/16 11:13:39;;;;;;;9.05;4.65;;;19.80;99.90;;;;;;5048847;28;20029;-86
2023/06/16 11:16:06;;;;;;;8.30;4.57;;;19.90;99.90;;;;;;5048580;28;20033;-87
2023/06/16 11:18:37;;;;;;;8.32;4.80;;;20.00;99.90;;;;;;5035735;28;20076;-88
2023/06/16 11:21:04;;;;;;;7.50;4.25;;;;;;;;;;5019786;28;20496;-85
2023/06/16 11:23:31;;;;;;;11.10;5.43;;;20.20;99.90;;;;;;5034772;28;20159;-84
2023/06/16 11:26:13;;;;;;;7.75;4.10;;;;;;;;;;5035805;28;20124;-88
2023/06/16 11:28:40;;;;;;;;;;;;;;;;;;5035888;28;20258;-85
2023/06/16 11:31:10;;;;;;;6.85;3.88;;;;;;;;;;5035036;28;19947;-87
2023/06/16 11:33:36;;;;;;;7.53;4.43;;;;;;;;;;5035268;28;20033;-84
2023/06/16 11:36:18;;;;;;;6.15;4.03;;;;;;;;;;5035019;28;20092;-87
2023/06/16 11:38:45;;;;;;;7.90;4.35;;;;;;;;;;5035035;28;20062;-85
2023/06/16 11:41:18;;;;;;;7.43;4.25;;;;;;;;;;5035417;28;20437;-85
2023/06/16 11:43:45;;;;;;;6.40;4.07;;;20.60;99.90;;;;;;5034988;28;20030;-85
2023/06/16 11:46:11;;;;;;;7.82;4.32;;;20.60;99.90;;;;;;5034975;28;20033;-86
2023/06/16 11:48:38;;;;;;;6.35;3.85;;;20.60;99.90;;;;;;5035177;28;20029;-84
2023/06/16 11:51:06;;;;;;;5.50;3.65;;;20.60;99.90;;;;;;5034731;28;20025;-84
2023/06/16 11:53:33;;;;;;;6.88;4.28;;;;;;;;;;5034941;28;20034;-85
2023/06/16 11:55:59;;;;;;;7.38;4.07;;;;;;;;;;5034782;28;20065;-84
2023/06/16 11:58:29;;;;;;;5.75;3.80;;;;;;;;;;5034464;28;20523;-82
2023/06/16 12:01:00;;;;;;;6.40;4.20;;;;;;;;;;5025646;28;20030;-88
2023/06/16 12:03:30;;;;;;;7.83;3.97;;;;;;;;;;5031212;28;20022;-84
2023/06/16 12:05:57;;;;;;;8.57;4.70;;;;;;;;;;5030376;28;20295;-84
2023/06/16 12:08:44;;;;;;;7.80;4.10;;;;;;;;;;5033019;28;20049;-88
2023/06/16 12:11:11;;;;;;;11.38;4.90;;;20.20;99.90;;;;;;5034307;28;20071;-86
2023/06/16 12:13:37;;;;;;;9.32;4.63;;;20.10;99.90;;;;;;5034890;28;20052;-85
2023/06/16 12:16:08;;;;;;;8.30;4.40;;;20.00;99.90;;;;;;5034270;28;20029;-87
2023/06/16 12:18:34;;;;;;;8.43;4.40;;;19.80;99.90;;;;;;5035549;28;20095;-85
2023/06/16 12:21:19;;;;;;;7.57;4.57;;;19.70;99.90;;;;;;5034616;28;20056;-84
2023/06/16 12:23:53;;;;;;;8.00;4.70;;;19.70;99.90;;;;;;5034474;28;20030;-83
2023/06/16 12:26:33;;;;;;;9.27;5.20;;;19.60;99.90;;;;;;5023496;28;20034;-84
2023/06/16 12:29:10;;;;;;;9.35;5.47;;;19.70;99.90;;;;;;5023520;28;20046;-85
2023/06/16 12:31:35;;;;;;;12.52;5.90;;;19.70;99.90;;;;;;5033987;28;20026;-87
2023/06/16 12:34:01;;;;;;;9.57;5.78;;;19.80;99.90;;;;;;5033843;28;20036;-88
2023/06/16 12:36:27;;;;;;;10.43;6.28;;;19.80;99.90;;;;;;5052583;28;20076;-85
2023/06/16 12:38:58;;;;;;;8.80;5.80;;;19.80;99.90;;;;;;5053106;28;20044;-87
2023/06/16 12:41:37;;;;;;;11.07;6.60;;;19.80;99.90;;;;;;5052931;28;20381;-86
2023/06/16 12:44:03;;;;;;;9.27;5.75;;;19.90;99.90;;;;;;5053074;28;20763;-87
2023/06/16 12:46:29;;;;;;;12.18;7.47;;;19.80;99.90;;;;;;5052211;28;20072;-87
2023/06/16 12:49:06;;;;;;;13.20;6.97;;;19.80;99.90;;;;;;5052885;28;20061;-88
2023/06/16 12:51:47;;;;;;;10.50;6.80;;;19.80;99.90;;;;;;5052976;28;20397;-88
2023/06/16 12:54:34;;;;;;;11.10;6.07;;;19.70;99.90;;;;;;5052310;28;20614;-85
2023/06/16 12:57:28;;;;;;;10.13;5.68;;;19.60;99.90;;;;;;5042016;28;20505;-86
2023/06/16 13:12:53;;;;;;;8.88;6.22;;;19.30;99.90;;;;;;6114214;22;4171761;-86
2023/06/16 13:15:47;;;;;;;8.90;6.43;;;19.30;99.90;;;;;;6284492;22;20098;-88
2023/06/16 13:18:16;;;;;;;8.40;5.60;;;19.20;99.90;;;;;;6284460;22;20082;-88
2023/06/16 13:20:51;;;;;;;13.10;6.20;;;19.10;99.90;;;;;;6284679;22;20008;-85
2023/06/16 13:23:23;;;;;;;10.75;5.97;;;19.00;99.90;;;;;;6284513;22;20057;-88
2023/06/16 13:25:51;;;;;;;;;;;19.00;99.90;;;;;;6284733;22;20003;-89